Terminal Aerodrome Forecast
Issued by NWS

Home | Current Version | Previous Version | Text Only | Print | Product List | Glossary On
Versions: 1 2 3 4 5 6 7 8 9 10 11 12
446
FTUS43 KFGF 242330
TAFBJI
TAF
KBJI 242330Z 2500/2524 35013G19KT P6SM SKC
     FM250200 VRB05KT P6SM SKC
     FM251500 22009KT P6SM SKC
     FM251900 22012G17KT P6SM SKC=

USA.gov is the U.S. government's official web portal to all federal, state and local government web resources and services.